sensor_id;sensor_type;location;lat;lon;timestamp;pressure;altitude;pressure_sealevel;temperature;humidity
18569;BME280;14780;48.316;-1.050;2023-02-28T00:00:13;100038.53;;;23.17;28.18
18569;BME280;14780;48.316;-1.050;2023-02-28T00:02:58;100045.28;;;23.14;28.22
18569;BME280;14780;48.316;-1.050;2023-02-28T00:05:44;100041.13;;;23.12;28.15
18569;BME280;14780;48.316;-1.050;2023-02-28T00:08:28;100047.66;;;23.11;28.15
18569;BME280;14780;48.316;-1.050;2023-02-28T00:11:15;100041.63;;;23.09;28.10
18569;BME280;14780;48.316;-1.050;2023-02-28T00:13:59;100046.25;;;23.08;28.11
18569;BME280;14780;48.316;-1.050;2023-02-28T00:16:44;100039.88;;;23.03;28.14
18569;BME280;14780;48.316;-1.050;2023-02-28T00:19:29;100037.13;;;23.03;28.23
18569;BME280;14780;48.316;-1.050;2023-02-28T00:22:15;100045.56;;;23.01;28.22
18569;BME280;14780;48.316;-1.050;2023-02-28T00:25:00;100043.91;;;23.00;28.20
18569;BME280;14780;48.316;-1.050;2023-02-28T00:27:45;100050.22;;;23.01;28.13
18569;BME280;14780;48.316;-1.050;2023-02-28T00:30:30;100053.19;;;22.99;28.20
18569;BME280;14780;48.316;-1.050;2023-02-28T00:33:15;100048.56;;;23.00;28.06
18569;BME280;14780;48.316;-1.050;2023-02-28T00:36:08;100046.91;;;22.99;28.23
18569;BME280;14780;48.316;-1.050;2023-02-28T00:38:54;100048.56;;;23.00;28.20
18569;BME280;14780;48.316;-1.050;2023-02-28T00:41:38;100049.63;;;22.99;28.08
18569;BME280;14780;48.316;-1.050;2023-02-28T00:44:23;100059.94;;;22.97;28.22
18569;BME280;14780;48.316;-1.050;2023-02-28T00:47:08;100061.03;;;22.96;28.06
18569;BME280;14780;48.316;-1.050;2023-02-28T00:49:53;100058.28;;;22.96;28.19
18569;BME280;14780;48.316;-1.050;2023-02-28T00:52:37;100063.75;;;22.96;28.20
18569;BME280;14780;48.316;-1.050;2023-02-28T00:55:22;100062.09;;;22.95;28.26
18569;BME280;14780;48.316;-1.050;2023-02-28T00:58:07;100058.28;;;22.96;28.25
18569;BME280;14780;48.316;-1.050;2023-02-28T01:00:52;100063.50;;;22.97;28.17
18569;BME280;14780;48.316;-1.050;2023-02-28T01:03:38;100059.59;;;22.93;28.20
18569;BME280;14780;48.316;-1.050;2023-02-28T01:06:23;100066.97;;;22.93;28.24
18569;BME280;14780;48.316;-1.050;2023-02-28T01:09:08;100066.97;;;22.93;28.19
18569;BME280;14780;48.316;-1.050;2023-02-28T01:11:53;100071.34;;;22.94;28.17
18569;BME280;14780;48.316;-1.050;2023-02-28T01:14:38;100066.72;;;22.94;28.18
18569;BME280;14780;48.316;-1.050;2023-02-28T01:17:23;100059.59;;;22.93;28.11
18569;BME280;14780;48.316;-1.050;2023-02-28T01:20:08;100069.72;;;22.93;28.25
18569;BME280;14780;48.316;-1.050;2023-02-28T01:22:54;100069.44;;;22.94;28.15
18569;BME280;14780;48.316;-1.050;2023-02-28T01:25:39;100069.72;;;22.93;28.11
18569;BME280;14780;48.316;-1.050;2023-02-28T01:28:24;100077.06;;;22.92;28.20
18569;BME280;14780;48.316;-1.050;2023-02-28T01:31:09;100080.84;;;22.91;28.13
18569;BME280;14780;48.316;-1.050;2023-02-28T01:33:54;100075.63;;;22.90;28.21
18569;BME280;14780;48.316;-1.050;2023-02-28T01:36:39;100074.56;;;22.91;28.26
18569;BME280;14780;48.316;-1.050;2023-02-28T01:39:24;100075.63;;;22.90;28.22
18569;BME280;14780;48.316;-1.050;2023-02-28T01:42:10;100084.09;;;22.88;28.30
18569;BME280;14780;48.316;-1.050;2023-02-28T01:45:03;100081.34;;;22.88;28.32
18569;BME280;14780;48.316;-1.050;2023-02-28T01:47:50;100081.59;;;22.87;28.20
18569;BME280;14780;48.316;-1.050;2023-02-28T01:50:41;100088.69;;;22.88;28.22
18569;BME280;14780;48.316;-1.050;2023-02-28T01:53:34;100087.84;;;22.87;28.28
18569;BME280;14780;48.316;-1.050;2023-02-28T01:56:24;100085.38;;;22.86;28.22
18569;BME280;14780;48.316;-1.050;2023-02-28T01:59:12;100082.09;;;22.84;28.27
18569;BME280;14780;48.316;-1.050;2023-02-28T02:01:57;100087.53;;;22.84;28.16
18569;BME280;14780;48.316;-1.050;2023-02-28T02:07:40;100086.47;;;22.85;28.12
18569;BME280;14780;48.316;-1.050;2023-02-28T02:13:24;100083.63;;;22.80;28.16
18569;BME280;14780;48.316;-1.050;2023-02-28T02:16:28;100083.63;;;22.80;28.27
18569;BME280;14780;48.316;-1.050;2023-02-28T02:29:04;100088.59;;;22.83;28.29
18569;BME280;14780;48.316;-1.050;2023-02-28T02:38:43;100101.84;;;22.91;28.63
18569;BME280;14780;48.316;-1.050;2023-02-28T02:41:53;100089.63;;;22.93;28.53
18569;BME280;14780;48.316;-1.050;2023-02-28T02:48:13;100089.19;;;22.85;28.48
18569;BME280;14780;48.316;-1.050;2023-02-28T02:51:03;100088.59;;;22.83;28.47
18569;BME280;14780;48.316;-1.050;2023-02-28T02:54:05;100086.19;;;22.86;28.41
18569;BME280;14780;48.316;-1.050;2023-02-28T02:56:52;100088.59;;;22.83;28.49
18569;BME280;14780;48.316;-1.050;2023-02-28T02:59:40;100088.59;;;22.83;28.49
18569;BME280;14780;48.316;-1.050;2023-02-28T03:02:26;100089.66;;;22.82;28.41
18569;BME280;14780;48.316;-1.050;2023-02-28T03:05:43;100078.28;;;22.85;28.46
18569;BME280;14780;48.316;-1.050;2023-02-28T03:08:35;100085.84;;;22.83;28.47
18569;BME280;14780;48.316;-1.050;2023-02-28T03:11:20;100079.81;;;22.81;28.45
18569;BME280;14780;48.316;-1.050;2023-02-28T03:20:52;100072.22;;;22.83;28.49
18569;BME280;14780;48.316;-1.050;2023-02-28T03:24:08;100069.47;;;22.83;28.48
18569;BME280;14780;48.316;-1.050;2023-02-28T03:30:12;100069.75;;;22.81;28.58
18569;BME280;14780;48.316;-1.050;2023-02-28T03:33:08;100071.88;;;22.79;28.50
18569;BME280;14780;48.316;-1.050;2023-02-28T03:36:02;100075.44;;;22.80;28.52
18569;BME280;14780;48.316;-1.050;2023-02-28T03:38:49;100090.00;;;22.85;28.51
18569;BME280;14780;48.316;-1.050;2023-02-28T03:41:42;100084.13;;;22.77;28.53
18569;BME280;14780;48.316;-1.050;2023-02-28T03:44:35;100086.00;;;22.76;28.74
18569;BME280;14780;48.316;-1.050;2023-02-28T03:50:12;100087.31;;;22.74;28.55
18569;BME280;14780;48.316;-1.050;2023-02-28T03:53:10;100080.19;;;22.73;28.56
18569;BME280;14780;48.316;-1.050;2023-02-28T03:56:16;100080.69;;;22.70;28.58
18569;BME280;14780;48.316;-1.050;2023-02-28T03:59:22;100078.66;;;22.77;28.51
18569;BME280;14780;48.316;-1.050;2023-02-28T04:02:11;100071.44;;;22.71;28.45
18569;BME280;14780;48.316;-1.050;2023-02-28T04:04:56;100067.63;;;22.72;28.53
18569;BME280;14780;48.316;-1.050;2023-02-28T04:07:41;100075.25;;;22.70;28.65
18569;BME280;14780;48.316;-1.050;2023-02-28T04:10:25;100084.47;;;22.69;28.52
18569;BME280;14780;48.316;-1.050;2023-02-28T04:13:10;100081.50;;;22.70;28.62
18569;BME280;14780;48.316;-1.050;2023-02-28T04:15:55;100086.97;;;22.70;28.51
18569;BME280;14780;48.316;-1.050;2023-02-28T04:18:43;100090.75;;;22.69;28.58
18569;BME280;14780;48.316;-1.050;2023-02-28T04:21:29;100095.38;;;22.69;28.66
18569;BME280;14780;48.316;-1.050;2023-02-28T04:24:17;100100.84;;;22.69;28.75
18569;BME280;14780;48.316;-1.050;2023-02-28T04:27:03;100097.06;;;22.70;28.69
18569;BME280;14780;48.316;-1.050;2023-02-28T04:29:48;100099.53;;;22.71;28.62
18569;BME280;14780;48.316;-1.050;2023-02-28T04:32:32;100099.78;;;22.70;28.56
18569;BME280;14780;48.316;-1.050;2023-02-28T04:35:17;100096.81;;;22.71;28.59
18569;BME280;14780;48.316;-1.050;2023-02-28T04:38:01;100095.16;;;22.70;28.68
18569;BME280;14780;48.316;-1.050;2023-02-28T04:40:46;100099.78;;;22.70;28.68
18569;BME280;14780;48.316;-1.050;2023-02-28T04:43:31;100094.34;;;22.70;28.56
18569;BME280;14780;48.316;-1.050;2023-02-28T04:46:16;100100.84;;;22.69;28.63
18569;BME280;14780;48.316;-1.050;2023-02-28T04:49:03;100098.72;;;22.71;28.48
18569;BME280;14780;48.316;-1.050;2023-02-28T04:51:47;100106.91;;;22.71;28.53
18569;BME280;14780;48.316;-1.050;2023-02-28T04:54:34;100113.44;;;22.70;28.64
18569;BME280;14780;48.316;-1.050;2023-02-28T04:57:19;100108.78;;;22.70;28.63
18569;BME280;14780;48.316;-1.050;2023-02-28T05:00:04;100109.00;;;22.69;28.58
18569;BME280;14780;48.316;-1.050;2023-02-28T05:02:51;100118.88;;;22.70;28.61
18569;BME280;14780;48.316;-1.050;2023-02-28T05:05:36;100122.44;;;22.70;28.58
18569;BME280;14780;48.316;-1.050;2023-02-28T05:08:20;100117.19;;;22.69;28.66
18569;BME280;14780;48.316;-1.050;2023-02-28T05:11:16;100126.22;;;22.69;28.69
18569;BME280;14780;48.316;-1.050;2023-02-28T05:14:02;100124.00;;;22.66;28.70
18569;BME280;14780;48.316;-1.050;2023-02-28T05:16:47;100131.56;;;22.64;28.58
18569;BME280;14780;48.316;-1.050;2023-02-28T05:19:32;100130.97;;;22.62;28.64
18569;BME280;14780;48.316;-1.050;2023-02-28T05:22:16;100126.38;;;22.63;28.58
18569;BME280;14780;48.316;-1.050;2023-02-28T05:25:01;100133.72;;;22.62;28.54
18569;BME280;14780;48.316;-1.050;2023-02-28T05:27:46;100130.41;;;22.60;28.63
18569;BME280;14780;48.316;-1.050;2023-02-28T05:30:31;100131.22;;;22.61;28.57
18569;BME280;14780;48.316;-1.050;2023-02-28T05:33:16;100136.66;;;22.61;28.48
18569;BME280;14780;48.316;-1.050;2023-02-28T05:36:00;100134.44;;;22.58;28.55
18569;BME280;14780;48.316;-1.050;2023-02-28T05:38:49;100129.22;;;22.56;28.54
18569;BME280;14780;48.316;-1.050;2023-02-28T05:41:34;100133.84;;;22.56;28.58
18569;BME280;14780;48.316;-1.050;2023-02-28T05:44:19;100136.31;;;22.57;28.64
18569;BME280;14780;48.316;-1.050;2023-02-28T05:47:04;100140.34;;;22.55;28.68
18569;BME280;14780;48.316;-1.050;2023-02-28T05:49:49;100139.31;;;22.56;28.57
18569;BME280;14780;48.316;-1.050;2023-02-28T05:52:33;100145.00;;;22.54;28.68
18569;BME280;14780;48.316;-1.050;2023-02-28T05:55:18;100142.25;;;22.54;28.72
18569;BME280;14780;48.316;-1.050;2023-02-28T05:58:03;100151.88;;;22.57;28.56
18569;BME280;14780;48.316;-1.050;2023-02-28T06:00:48;100151.25;;;22.55;28.75
18569;BME280;14780;48.316;-1.050;2023-02-28T06:03:33;100144.75;;;22.56;28.58
18569;BME280;14780;48.316;-1.050;2023-02-28T06:06:18;100153.97;;;22.55;28.61
18569;BME280;14780;48.316;-1.050;2023-02-28T06:09:04;100144.41;;;22.52;28.55
18569;BME280;14780;48.316;-1.050;2023-02-28T06:11:49;100153.41;;;22.53;28.60
18569;BME280;14780;48.316;-1.050;2023-02-28T06:14:34;100145.22;;;22.53;28.49
18569;BME280;14780;48.316;-1.050;2023-02-28T06:17:19;100147.94;;;22.53;28.51
18569;BME280;14780;48.316;-1.050;2023-02-28T06:20:05;100154.25;;;22.53;28.54
18569;BME280;14780;48.316;-1.050;2023-02-28T06:22:50;100159.09;;;22.51;28.62
18569;BME280;14780;48.316;-1.050;2023-02-28T06:25:35;100155.06;;;22.54;28.61
18569;BME280;14780;48.316;-1.050;2023-02-28T06:28:20;100158.84;;;22.53;28.59
18569;BME280;14780;48.316;-1.050;2023-02-28T06:31:09;100157.78;;;22.54;28.62
18569;BME280;14780;48.316;-1.050;2023-02-28T06:33:54;100158.84;;;22.53;28.61
18569;BME280;14780;48.316;-1.050;2023-02-28T06:36:40;100159.09;;;22.51;28.58
18569;BME280;14780;48.316;-1.050;2023-02-28T06:39:25;100163.25;;;22.54;28.53
18569;BME280;14780;48.316;-1.050;2023-02-28T06:42:10;100156.72;;;22.55;28.63
18569;BME280;14780;48.316;-1.050;2023-02-28T06:44:55;100163.25;;;22.54;28.58
18569;BME280;14780;48.316;-1.050;2023-02-28T06:47:41;100168.97;;;22.52;28.50
18569;BME280;14780;48.316;-1.050;2023-02-28T06:50:26;100172.50;;;22.53;28.57
18569;BME280;14780;48.316;-1.050;2023-02-28T06:53:12;100170.00;;;22.51;28.58
18569;BME280;14780;48.316;-1.050;2023-02-28T06:55:57;100177.13;;;22.52;28.63
18569;BME280;14780;48.316;-1.050;2023-02-28T06:58:42;100176.28;;;22.52;28.56
18569;BME280;14780;48.316;-1.050;2023-02-28T07:01:26;100185.53;;;22.51;28.61
18569;BME280;14780;48.316;-1.050;2023-02-28T07:04:12;100180.09;;;22.51;28.56
18569;BME280;14780;48.316;-1.050;2023-02-28T07:06:57;100188.03;;;22.52;28.57
18569;BME280;14780;48.316;-1.050;2023-02-28T07:09:42;100190.16;;;22.50;28.63
18569;BME280;14780;48.316;-1.050;2023-02-28T07:12:26;100182.81;;;22.51;28.58
18569;BME280;14780;48.316;-1.050;2023-02-28T07:15:11;100186.84;;;22.48;28.53
18569;BME280;14780;48.316;-1.050;2023-02-28T07:17:56;100197.75;;;22.48;28.60
18569;BME280;14780;48.316;-1.050;2023-02-28T07:20:41;100192.53;;;22.47;28.62
18569;BME280;14780;48.316;-1.050;2023-02-28T07:23:25;100192.53;;;22.47;28.65
18569;BME280;14780;48.316;-1.050;2023-02-28T07:26:15;100195.88;;;22.49;28.56
18569;BME280;14780;48.316;-1.050;2023-02-28T07:29:01;100211.97;;;22.50;28.54
18569;BME280;14780;48.316;-1.050;2023-02-28T07:31:47;100213.31;;;22.48;28.53
18569;BME280;14780;48.316;-1.050;2023-02-28T07:34:31;100220.66;;;22.47;28.62
18569;BME280;14780;48.316;-1.050;2023-02-28T07:37:16;100214.97;;;22.49;28.57
18569;BME280;14780;48.316;-1.050;2023-02-28T07:40:00;100225.03;;;22.48;28.49
18569;BME280;14780;48.316;-1.050;2023-02-28T07:42:45;100221.72;;;22.46;28.57
18569;BME280;14780;48.316;-1.050;2023-02-28T07:45:30;100227.16;;;22.46;28.54
18569;BME280;14780;48.316;-1.050;2023-02-28T07:48:18;100225.50;;;22.45;28.61
18569;BME280;14780;48.316;-1.050;2023-02-28T07:51:03;100226.31;;;22.46;28.54
18569;BME280;14780;48.316;-1.050;2023-02-28T07:53:48;100227.97;;;22.47;28.61
18569;BME280;14780;48.316;-1.050;2023-02-28T07:56:34;100225.25;;;22.47;28.55
18569;BME280;14780;48.316;-1.050;2023-02-28T07:59:19;100225.50;;;22.45;28.58
18569;BME280;14780;48.316;-1.050;2023-02-28T08:02:03;100233.44;;;22.47;28.52
18569;BME280;14780;48.316;-1.050;2023-02-28T08:04:48;100235.13;;;22.48;28.56
18569;BME280;14780;48.316;-1.050;2023-02-28T08:07:33;100233.44;;;22.47;28.49
18569;BME280;14780;48.316;-1.050;2023-02-28T08:10:18;100236.78;;;22.49;28.53
18569;BME280;14780;48.316;-1.050;2023-02-28T08:13:03;100228.34;;;22.50;28.62
18569;BME280;14780;48.316;-1.050;2023-02-28T08:15:48;100226.22;;;22.52;28.58
18569;BME280;14780;48.316;-1.050;2023-02-28T08:18:33;100229.31;;;22.56;28.71
18569;BME280;14780;48.316;-1.050;2023-02-28T08:21:18;100229.91;;;22.58;28.72
18569;BME280;14780;48.316;-1.050;2023-02-28T08:24:03;100224.81;;;22.61;28.69
18569;BME280;14780;48.316;-1.050;2023-02-28T08:26:48;100229.69;;;22.59;28.70
18569;BME280;14780;48.316;-1.050;2023-02-28T08:29:33;100228.97;;;22.64;28.70
18569;BME280;14780;48.316;-1.050;2023-02-28T08:32:17;100223.00;;;22.67;28.87
18569;BME280;14780;48.316;-1.050;2023-02-28T08:35:02;100231.78;;;22.69;28.95
18569;BME280;14780;48.316;-1.050;2023-02-28T08:37:50;100233.47;;;22.70;29.01
18569;BME280;14780;48.316;-1.050;2023-02-28T08:40:35;100245.19;;;22.70;29.02
18569;BME280;14780;48.316;-1.050;2023-02-28T08:43:20;100241.66;;;22.70;29.06
18569;BME280;14780;48.316;-1.050;2023-02-28T08:46:05;100251.50;;;22.71;29.11
18569;BME280;14780;48.316;-1.050;2023-02-28T08:48:53;100244.38;;;22.70;29.08
18569;BME280;14780;48.316;-1.050;2023-02-28T08:51:39;100245.19;;;22.70;28.90
18569;BME280;14780;48.316;-1.050;2023-02-28T08:54:24;100245.44;;;22.69;28.76
18569;BME280;14780;48.316;-1.050;2023-02-28T08:57:09;100241.53;;;22.65;28.62
18569;BME280;14780;48.316;-1.050;2023-02-28T08:59:54;100237.72;;;22.66;28.58
18569;BME280;14780;48.316;-1.050;2023-02-28T09:02:39;100243.69;;;22.63;28.45
18569;BME280;14780;48.316;-1.050;2023-02-28T09:05:24;100247.22;;;22.63;28.48
18569;BME280;14780;48.316;-1.050;2023-02-28T09:08:09;100243.69;;;22.63;28.50
18569;BME280;14780;48.316;-1.050;2023-02-28T09:10:54;100241.53;;;22.65;28.49
18569;BME280;14780;48.316;-1.050;2023-02-28T09:13:41;100250.31;;;22.67;28.37
18569;BME280;14780;48.316;-1.050;2023-02-28T09:16:25;100241.31;;;22.66;28.41
18569;BME280;14780;48.316;-1.050;2023-02-28T09:19:11;100239.38;;;22.67;28.42
18569;BME280;14780;48.316;-1.050;2023-02-28T09:21:57;100242.69;;;22.69;28.34
18569;BME280;14780;48.316;-1.050;2023-02-28T09:24:42;100242.69;;;22.69;28.47
18569;BME280;14780;48.316;-1.050;2023-02-28T09:27:27;100237.84;;;22.71;28.43
18569;BME280;14780;48.316;-1.050;2023-02-28T09:30:12;100233.47;;;22.70;28.36
18569;BME280;14780;48.316;-1.050;2023-02-28T09:32:57;100242.25;;;22.72;28.43
18569;BME280;14780;48.316;-1.050;2023-02-28T09:35:42;100244.47;;;22.75;28.41
18569;BME280;14780;48.316;-1.050;2023-02-28T09:38:27;100246.63;;;22.73;28.39
18569;BME280;14780;48.316;-1.050;2023-02-28T09:41:21;100247.56;;;22.78;28.39
18569;BME280;14780;48.316;-1.050;2023-02-28T09:44:12;100242.13;;;22.78;28.49
18569;BME280;14780;48.316;-1.050;2023-02-28T09:49:57;100245.09;;;22.77;28.37
18569;BME280;14780;48.316;-1.050;2023-02-28T09:52:46;100243.78;;;22.79;28.39
18569;BME280;14780;48.316;-1.050;2023-02-28T09:55:42;100242.47;;;22.82;28.36
18569;BME280;14780;48.316;-1.050;2023-02-28T09:58:48;100244.38;;;22.81;28.35
18569;BME280;14780;48.316;-1.050;2023-02-28T10:04:46;100255.66;;;22.85;28.29
18569;BME280;14780;48.316;-1.050;2023-02-28T10:11:00;100245.81;;;22.84;28.27
18569;BME280;14780;48.316;-1.050;2023-02-28T10:25:30;100222.28;;;22.83;28.20
18569;BME280;14780;48.316;-1.050;2023-02-28T10:28:16;100218.25;;;22.85;28.16
18569;BME280;14780;48.316;-1.050;2023-02-28T10:31:02;100228.94;;;22.87;28.26
18569;BME280;14780;48.316;-1.050;2023-02-28T10:33:48;100239.63;;;22.88;28.20
18569;BME280;14780;48.316;-1.050;2023-02-28T10:36:32;100226.81;;;22.89;28.14
18569;BME280;14780;48.316;-1.050;2023-02-28T10:39:40;100225.84;;;22.95;28.07
18569;BME280;14780;48.316;-1.050;2023-02-28T10:42:30;100233.47;;;22.93;28.16
18569;BME280;14780;48.316;-1.050;2023-02-28T10:45:18;100225.28;;;22.93;28.03
18569;BME280;14780;48.316;-1.050;2023-02-28T10:50:55;100221.47;;;22.94;28.08
18569;BME280;14780;48.316;-1.050;2023-02-28T10:53:47;100213.06;;;22.95;27.97
18569;BME280;14780;48.316;-1.050;2023-02-28T10:56:33;100216.59;;;22.96;27.98
18569;BME280;14780;48.316;-1.050;2023-02-28T10:59:27;100215.28;;;22.98;27.93
18569;BME280;14780;48.316;-1.050;2023-02-28T11:02:36;100204.72;;;23.02;27.92
18569;BME280;14780;48.316;-1.050;2023-02-28T11:05:33;100208.03;;;23.04;28.01
18569;BME280;14780;48.316;-1.050;2023-02-28T11:08:19;100200.91;;;23.03;28.06
18569;BME280;14780;48.316;-1.050;2023-02-28T11:11:06;100205.31;;;23.04;27.98
18569;BME280;14780;48.316;-1.050;2023-02-28T11:14:03;100203.28;;;23.11;27.86
18569;BME280;14780;48.316;-1.050;2023-02-28T11:16:49;100204.13;;;23.11;27.91
18569;BME280;14780;48.316;-1.050;2023-02-28T11:19:39;100207.44;;;23.13;27.95
18569;BME280;14780;48.316;-1.050;2023-02-28T11:22:29;100199.63;;;23.17;27.84
18569;BME280;14780;48.316;-1.050;2023-02-28T11:25:36;100203.28;;;23.22;27.85
18569;BME280;14780;48.316;-1.050;2023-02-28T11:28:34;100206.84;;;23.23;27.78
18569;BME280;14780;48.316;-1.050;2023-02-28T11:31:19;100194.28;;;23.22;27.81
18569;BME280;14780;48.316;-1.050;2023-02-28T11:34:25;100179.53;;;23.23;27.65
18569;BME280;14780;48.316;-1.050;2023-02-28T11:37:21;100190.22;;;23.24;27.61
18569;BME280;14780;48.316;-1.050;2023-02-28T11:40:14;100183.19;;;23.28;27.92
18569;BME280;14780;48.316;-1.050;2023-02-28T11:55:39;100163.91;;;23.46;27.73
18569;BME280;14780;48.316;-1.050;2023-02-28T12:02:23;100156.97;;;23.55;27.82
18569;BME280;14780;48.316;-1.050;2023-02-28T12:11:52;100167.16;;;23.59;27.64
18569;BME280;14780;48.316;-1.050;2023-02-28T12:26:48;100142.97;;;23.51;27.63
18569;BME280;14780;48.316;-1.050;2023-02-28T12:29:42;100145.72;;;23.51;27.49
18569;BME280;14780;48.316;-1.050;2023-02-28T12:32:34;100129.09;;;23.53;27.52
18569;BME280;14780;48.316;-1.050;2023-02-28T12:35:26;100119.53;;;23.55;27.55
18569;BME280;14780;48.316;-1.050;2023-02-28T12:38:27;100108.38;;;23.57;27.56
18569;BME280;14780;48.316;-1.050;2023-02-28T12:41:17;100112.75;;;23.58;27.42
18569;BME280;14780;48.316;-1.050;2023-02-28T12:44:12;100113.03;;;23.56;27.31
18569;BME280;14780;48.316;-1.050;2023-02-28T12:47:04;100106.16;;;23.54;27.39
18569;BME280;14780;48.316;-1.050;2023-02-28T12:49:56;100095.47;;;23.52;27.21
18569;BME280;14780;48.316;-1.050;2023-02-28T12:52:59;100092.72;;;23.52;27.30
18569;BME280;14780;48.316;-1.050;2023-02-28T12:58:56;100085.09;;;23.54;27.36
18569;BME280;14780;48.316;-1.050;2023-02-28T13:05:24;100063.25;;;23.54;27.17
18569;BME280;14780;48.316;-1.050;2023-02-28T13:09:01;100066.06;;;23.59;27.11
18569;BME280;14780;48.316;-1.050;2023-02-28T13:11:45;100061.13;;;23.56;27.20
18569;BME280;14780;48.316;-1.050;2023-02-28T13:14:37;100056.47;;;23.57;27.26
18569;BME280;14780;48.316;-1.050;2023-02-28T13:17:24;100061.94;;;23.57;27.23
18569;BME280;14780;48.316;-1.050;2023-02-28T13:20:25;100055.38;;;23.58;27.20
18569;BME280;14780;48.316;-1.050;2023-02-28T13:26:21;100065.97;;;23.54;27.23
18569;BME280;14780;48.316;-1.050;2023-02-28T13:37:42;100057.78;;;23.54;27.13
18569;BME280;14780;48.316;-1.050;2023-02-28T13:40:33;100045.78;;;23.55;27.17
18569;BME280;14780;48.316;-1.050;2023-02-28T13:49:34;100045.06;;;23.60;27.17
18569;BME280;14780;48.316;-1.050;2023-02-28T13:52:24;100034.94;;;23.60;27.08
18569;BME280;14780;48.316;-1.050;2023-02-28T13:59:04;100037.44;;;23.62;26.98
18569;BME280;14780;48.316;-1.050;2023-02-28T14:07:39;100034.72;;;23.62;27.06
18569;BME280;14780;48.316;-1.050;2023-02-28T14:10:31;100030.31;;;23.61;26.94
18569;BME280;14780;48.316;-1.050;2023-02-28T14:16:24;100026.28;;;23.63;26.96
18569;BME280;14780;48.316;-1.050;2023-02-28T14:19:12;100029.56;;;23.65;27.05
18569;BME280;14780;48.316;-1.050;2023-02-28T14:28:16;100036.19;;;23.69;27.06
18569;BME280;14780;48.316;-1.050;2023-02-28T14:37:01;100027.41;;;23.67;27.02
18569;BME280;14780;48.316;-1.050;2023-02-28T14:39:47;100028.72;;;23.65;26.96
18569;BME280;14780;48.316;-1.050;2023-02-28T14:42:35;100037.25;;;23.68;27.11
18569;BME280;14780;48.316;-1.050;2023-02-28T14:45:23;100027.97;;;23.69;27.07
18569;BME280;14780;48.316;-1.050;2023-02-28T14:48:10;100026.34;;;23.68;26.95
18569;BME280;14780;48.316;-1.050;2023-02-28T14:50:57;100024.69;;;23.67;26.94
18569;BME280;14780;48.316;-1.050;2023-02-28T14:53:43;100032.88;;;23.67;27.08
18569;BME280;14780;48.316;-1.050;2023-02-28T14:56:37;100025.53;;;23.68;27.02
18569;BME280;14780;48.316;-1.050;2023-02-28T14:59:29;100021.13;;;23.67;26.99
18569;BME280;14780;48.316;-1.050;2023-02-28T15:02:21;100014.59;;;23.68;27.06
18569;BME280;14780;48.316;-1.050;2023-02-28T15:05:23;100024.69;;;23.67;26.94
18569;BME280;14780;48.316;-1.050;2023-02-28T15:08:16;100018.41;;;23.67;27.01
18569;BME280;14780;48.316;-1.050;2023-02-28T15:11:02;100015.06;;;23.65;26.97
18569;BME280;14780;48.316;-1.050;2023-02-28T15:13:54;100015.69;;;23.67;26.94
18569;BME280;14780;48.316;-1.050;2023-02-28T15:16:42;100012.09;;;23.66;27.03
18569;BME280;14780;48.316;-1.050;2023-02-28T15:19:32;100005.78;;;23.66;27.18
18569;BME280;14780;48.316;-1.050;2023-02-28T15:22:28;100008.53;;;23.66;27.03
18569;BME280;14780;48.316;-1.050;2023-02-28T15:25:18;99995.94;;;23.65;27.08
18569;BME280;14780;48.316;-1.050;2023-02-28T15:28:04;99999.53;;;23.65;27.06
18569;BME280;14780;48.316;-1.050;2023-02-28T15:30:58;100009.38;;;23.66;27.07
18569;BME280;14780;48.316;-1.050;2023-02-28T15:33:54;100006.63;;;23.66;27.12
18569;BME280;14780;48.316;-1.050;2023-02-28T15:36:39;100004.41;;;23.63;27.06
18569;BME280;14780;48.316;-1.050;2023-02-28T15:39:26;99996.69;;;23.60;27.10
18569;BME280;14780;48.316;-1.050;2023-02-28T15:42:22;99996.78;;;23.65;26.98
18569;BME280;14780;48.316;-1.050;2023-02-28T15:45:37;99998.69;;;23.65;27.08
18569;BME280;14780;48.316;-1.050;2023-02-28T15:48:28;99998.63;;;23.60;27.17
18569;BME280;14780;48.316;-1.050;2023-02-28T15:51:24;99999.66;;;23.59;27.17
18569;BME280;14780;48.316;-1.050;2023-02-28T15:54:18;99980.53;;;23.59;27.19
18569;BME280;14780;48.316;-1.050;2023-02-28T15:57:10;99976.16;;;23.58;27.34
18569;BME280;14780;48.316;-1.050;2023-02-28T16:00:01;99973.69;;;23.56;27.39
18569;BME280;14780;48.316;-1.050;2023-02-28T16:02:49;99980.53;;;23.59;27.41
18569;BME280;14780;48.316;-1.050;2023-02-28T16:05:34;99967.72;;;23.59;27.54
18569;BME280;14780;48.316;-1.050;2023-02-28T16:08:19;99957.38;;;23.61;27.63
18569;BME280;14780;48.316;-1.050;2023-02-28T16:11:08;99968.91;;;23.63;27.60
18569;BME280;14780;48.316;-1.050;2023-02-28T16:13:53;99967.22;;;23.62;27.72
18569;BME280;14780;48.316;-1.050;2023-02-28T16:16:46;99964.00;;;23.65;27.79
18569;BME280;14780;48.316;-1.050;2023-02-28T16:19:32;99956.59;;;23.66;27.81
18569;BME280;14780;48.316;-1.050;2023-02-28T16:22:18;99950.34;;;23.65;27.83
18569;BME280;14780;48.316;-1.050;2023-02-28T16:25:03;99951.75;;;23.68;27.75
18569;BME280;14780;48.316;-1.050;2023-02-28T16:27:50;99945.19;;;23.69;27.83
18569;BME280;14780;48.316;-1.050;2023-02-28T16:30:35;99949.59;;;23.70;27.94
18569;BME280;14780;48.316;-1.050;2023-02-28T16:33:20;99949.34;;;23.71;27.93
18569;BME280;14780;48.316;-1.050;2023-02-28T16:36:09;99943.38;;;23.74;27.86
18569;BME280;14780;48.316;-1.050;2023-02-28T16:38:54;99948.34;;;23.77;27.96
18569;BME280;14780;48.316;-1.050;2023-02-28T16:41:43;99954.94;;;23.81;27.96
18569;BME280;14780;48.316;-1.050;2023-02-28T16:44:31;99961.56;;;23.85;27.93
18569;BME280;14780;48.316;-1.050;2023-02-28T16:47:16;99966.56;;;23.88;27.90
18569;BME280;14780;48.316;-1.050;2023-02-28T16:50:04;99969.88;;;23.90;28.02
18569;BME280;14780;48.316;-1.050;2023-02-28T16:52:49;99963.06;;;23.93;28.18
18569;BME280;14780;48.316;-1.050;2023-02-28T16:55:36;99969.94;;;23.95;28.03